CheckWX is a tool to help pilots better visualize weather data.  It is not intended as a substitute for an official pre-flight weather briefing.

15:23:23 UTC

KGUS TAF
Grissom ARB Airport
Peru, Indiana, USA
TAF KGUS 201100Z 2011/2117 29012G18KT 9999 FEW015 BKN040 QNH2989INS BECMG 2022/2023 32009KT 9999 FEW060 QNH3001INS BECMG 2103/2104 04006KT 9999 FEW200 QNH3005INS BECMG 2113/2114 08012G18KT 9999 FEW200 QNH3008INS TX15/2017Z TN07/2102Z

May-20@
11:00 UTC

May-20 @ 11:00 UTC

May-20@
22:00 UTC

May-20 @ 22:00 UTC

TAF KGUS 201100Z 2011/2117 29012G18KT 9999 FEW015 BKN040 QNH2989INS
Wind
  • 290° at 12 KTS
  • {Gusting to 18 KTS
Cloud Levels
  • Few at 1,500' AGL
  • Broken at 4,000' AGL

May-20@
22:00 UTC

May-20 @ 22:00 UTC

May-21@
03:00 UTC

May-21 @ 03:00 UTC

BECMG 2022/2023 32009KT 9999 FEW060 QNH3001INS

Becoming

Becoming Conditions expected by Mon, May 20, 2019 @ 23:00 UTC

Wind
  • 320° at 9 KTS
Cloud Levels
  • Few at 6,000' AGL

May-21@
03:00 UTC

May-21 @ 03:00 UTC

May-21@
13:00 UTC

May-21 @ 13:00 UTC

BECMG 2103/2104 04006KT 9999 FEW200 QNH3005INS

Becoming

Becoming Conditions expected by Tue, May 21, 2019 @ 04:00 UTC

Wind
  • 040° at 6 KTS
Cloud Levels
  • Few at 20,000' AGL

May-21@
13:00 UTC

May-21 @ 13:00 UTC

May-21@
17:00 UTC

May-21 @ 17:00 UTC

BECMG 2113/2114 08012G18KT 9999 FEW200 QNH3008INS TX15/2017Z TN07/2102Z

Becoming

Becoming Conditions expected by Tue, May 21, 2019 @ 14:00 UTC

Wind
  • 080° at 12 KTS
  • {Gusting to 18 KTS
Cloud Levels
  • Few at 20,000' AGL